sensor_id;sensor_type;location;lat;lon;timestamp;P1;durP1;ratioP1;P2;durP2;ratioP2
45206;SDS011;30950;53.086;21.576;2023-05-07T00:00:32;8.30;;;3.45;;
45206;SDS011;30950;53.086;21.576;2023-05-07T00:03:18;5.85;;;3.50;;
45206;SDS011;30950;53.086;21.576;2023-05-07T00:05:45;6.63;;;3.22;;
45206;SDS011;30950;53.086;21.576;2023-05-07T00:08:13;9.23;;;3.90;;
45206;SDS011;30950;53.086;21.576;2023-05-07T00:10:40;5.53;;;3.22;;
45206;SDS011;30950;53.086;21.576;2023-05-07T00:13:08;6.03;;;3.17;;
45206;SDS011;30950;53.086;21.576;2023-05-07T00:15:35;6.82;;;3.63;;
45206;SDS011;30950;53.086;21.576;2023-05-07T00:18:02;7.57;;;3.47;;
45206;SDS011;30950;53.086;21.576;2023-05-07T00:20:29;7.25;;;3.38;;
45206;SDS011;30950;53.086;21.576;2023-05-07T00:22:57;4.75;;;2.80;;
45206;SDS011;30950;53.086;21.576;2023-05-07T00:25:24;7.20;;;3.10;;
45206;SDS011;30950;53.086;21.576;2023-05-07T00:27:51;7.43;;;3.15;;
45206;SDS011;30950;53.086;21.576;2023-05-07T00:30:18;4.57;;;2.90;;
45206;SDS011;30950;53.086;21.576;2023-05-07T00:32:46;7.82;;;3.05;;
45206;SDS011;30950;53.086;21.576;2023-05-07T00:35:15;7.53;;;3.40;;
45206;SDS011;30950;53.086;21.576;2023-05-07T00:37:42;4.35;;;2.55;;
45206;SDS011;30950;53.086;21.576;2023-05-07T00:40:09;6.03;;;2.90;;
45206;SDS011;30950;53.086;21.576;2023-05-07T00:42:37;4.82;;;2.90;;
45206;SDS011;30950;53.086;21.576;2023-05-07T00:45:04;6.22;;;2.97;;
45206;SDS011;30950;53.086;21.576;2023-05-07T00:47:34;5.40;;;2.90;;
45206;SDS011;30950;53.086;21.576;2023-05-07T00:50:01;4.60;;;3.10;;
45206;SDS011;30950;53.086;21.576;2023-05-07T00:52:30;4.28;;;2.72;;
45206;SDS011;30950;53.086;21.576;2023-05-07T00:54:57;7.97;;;2.92;;
45206;SDS011;30950;53.086;21.576;2023-05-07T00:57:26;6.35;;;3.03;;
45206;SDS011;30950;53.086;21.576;2023-05-07T00:59:53;4.75;;;3.08;;
45206;SDS011;30950;53.086;21.576;2023-05-07T01:02:22;6.22;;;3.03;;
45206;SDS011;30950;53.086;21.576;2023-05-07T01:04:49;7.63;;;2.83;;
45206;SDS011;30950;53.086;21.576;2023-05-07T01:07:17;5.90;;;2.50;;
45206;SDS011;30950;53.086;21.576;2023-05-07T01:09:45;7.32;;;3.60;;
45206;SDS011;30950;53.086;21.576;2023-05-07T01:12:13;4.20;;;2.53;;
45206;SDS011;30950;53.086;21.576;2023-05-07T01:14:40;4.95;;;2.85;;
45206;SDS011;30950;53.086;21.576;2023-05-07T01:17:08;3.55;;;2.50;;
45206;SDS011;30950;53.086;21.576;2023-05-07T01:19:35;8.52;;;3.28;;
45206;SDS011;30950;53.086;21.576;2023-05-07T01:22:04;4.97;;;2.72;;
45206;SDS011;30950;53.086;21.576;2023-05-07T01:24:44;6.10;;;2.92;;
45206;SDS011;30950;53.086;21.576;2023-05-07T01:27:14;6.38;;;2.85;;
45206;SDS011;30950;53.086;21.576;2023-05-07T01:29:42;8.73;;;3.25;;
45206;SDS011;30950;53.086;21.576;2023-05-07T01:32:09;7.38;;;2.97;;
45206;SDS011;30950;53.086;21.576;2023-05-07T01:34:38;4.65;;;2.85;;
45206;SDS011;30950;53.086;21.576;2023-05-07T01:37:06;6.28;;;2.95;;
45206;SDS011;30950;53.086;21.576;2023-05-07T01:39:36;5.57;;;2.95;;
45206;SDS011;30950;53.086;21.576;2023-05-07T01:42:05;6.10;;;2.88;;
45206;SDS011;30950;53.086;21.576;2023-05-07T01:44:33;6.25;;;2.80;;
45206;SDS011;30950;53.086;21.576;2023-05-07T01:47:01;5.95;;;3.03;;
45206;SDS011;30950;53.086;21.576;2023-05-07T01:49:32;5.97;;;2.90;;
45206;SDS011;30950;53.086;21.576;2023-05-07T01:51:59;4.43;;;2.58;;
45206;SDS011;30950;53.086;21.576;2023-05-07T01:54:26;4.75;;;2.70;;
45206;SDS011;30950;53.086;21.576;2023-05-07T01:56:58;4.22;;;2.65;;
45206;SDS011;30950;53.086;21.576;2023-05-07T01:59:25;5.28;;;2.95;;
45206;SDS011;30950;53.086;21.576;2023-05-07T02:01:53;5.43;;;2.90;;
45206;SDS011;30950;53.086;21.576;2023-05-07T02:04:20;6.78;;;3.35;;
45206;SDS011;30950;53.086;21.576;2023-05-07T02:06:48;5.32;;;2.80;;
45206;SDS011;30950;53.086;21.576;2023-05-07T02:09:16;4.63;;;3.05;;
45206;SDS011;30950;53.086;21.576;2023-05-07T02:11:46;5.82;;;2.72;;
45206;SDS011;30950;53.086;21.576;2023-05-07T02:14:13;4.45;;;2.83;;
45206;SDS011;30950;53.086;21.576;2023-05-07T02:16:42;7.70;;;3.55;;
45206;SDS011;30950;53.086;21.576;2023-05-07T02:19:11;7.32;;;3.58;;
45206;SDS011;30950;53.086;21.576;2023-05-07T02:21:39;7.95;;;4.07;;
45206;SDS011;30950;53.086;21.576;2023-05-07T02:24:06;5.35;;;2.97;;
45206;SDS011;30950;53.086;21.576;2023-05-07T02:26:33;4.80;;;3.20;;
45206;SDS011;30950;53.086;21.576;2023-05-07T02:29:00;7.82;;;3.25;;
45206;SDS011;30950;53.086;21.576;2023-05-07T02:31:28;5.65;;;3.00;;
45206;SDS011;30950;53.086;21.576;2023-05-07T02:33:55;8.20;;;3.20;;
45206;SDS011;30950;53.086;21.576;2023-05-07T02:36:22;5.82;;;3.63;;
45206;SDS011;30950;53.086;21.576;2023-05-07T02:38:55;9.85;;;3.70;;
45206;SDS011;30950;53.086;21.576;2023-05-07T02:41:23;6.85;;;2.95;;
45206;SDS011;30950;53.086;21.576;2023-05-07T02:43:50;11.38;;;3.78;;
45206;SDS011;30950;53.086;21.576;2023-05-07T02:46:17;8.00;;;3.90;;
45206;SDS011;30950;53.086;21.576;2023-05-07T02:48:50;8.25;;;3.60;;
45206;SDS011;30950;53.086;21.576;2023-05-07T02:51:19;6.07;;;3.85;;
45206;SDS011;30950;53.086;21.576;2023-05-07T02:53:52;6.40;;;3.83;;
45206;SDS011;30950;53.086;21.576;2023-05-07T02:56:20;8.70;;;3.83;;
45206;SDS011;30950;53.086;21.576;2023-05-07T02:58:48;7.85;;;3.58;;
45206;SDS011;30950;53.086;21.576;2023-05-07T03:01:17;4.95;;;3.50;;
45206;SDS011;30950;53.086;21.576;2023-05-07T03:04:05;7.13;;;3.00;;
45206;SDS011;30950;53.086;21.576;2023-05-07T03:06:32;6.32;;;2.88;;
45206;SDS011;30950;53.086;21.576;2023-05-07T03:08:59;7.85;;;4.60;;
45206;SDS011;30950;53.086;21.576;2023-05-07T03:11:27;5.68;;;3.38;;
45206;SDS011;30950;53.086;21.576;2023-05-07T03:13:54;8.85;;;3.92;;
45206;SDS011;30950;53.086;21.576;2023-05-07T03:16:22;11.90;;;3.88;;
45206;SDS011;30950;53.086;21.576;2023-05-07T03:18:49;8.95;;;4.38;;
45206;SDS011;30950;53.086;21.576;2023-05-07T03:21:16;8.65;;;4.18;;
45206;SDS011;30950;53.086;21.576;2023-05-07T03:23:43;10.88;;;4.30;;
45206;SDS011;30950;53.086;21.576;2023-05-07T03:26:11;9.82;;;3.85;;
45206;SDS011;30950;53.086;21.576;2023-05-07T03:28:38;8.13;;;3.83;;
45206;SDS011;30950;53.086;21.576;2023-05-07T03:31:10;6.00;;;3.70;;
45206;SDS011;30950;53.086;21.576;2023-05-07T03:33:39;6.35;;;4.07;;
45206;SDS011;30950;53.086;21.576;2023-05-07T03:36:23;7.82;;;4.00;;
45206;SDS011;30950;53.086;21.576;2023-05-07T03:38:54;9.60;;;4.60;;
45206;SDS011;30950;53.086;21.576;2023-05-07T03:41:24;7.50;;;4.00;;
45206;SDS011;30950;53.086;21.576;2023-05-07T03:43:53;9.63;;;4.50;;
45206;SDS011;30950;53.086;21.576;2023-05-07T03:46:20;7.65;;;3.70;;
45206;SDS011;30950;53.086;21.576;2023-05-07T03:48:47;11.32;;;4.22;;
45206;SDS011;30950;53.086;21.576;2023-05-07T03:51:16;7.63;;;4.32;;
45206;SDS011;30950;53.086;21.576;2023-05-07T03:53:43;6.05;;;3.50;;
45206;SDS011;30950;53.086;21.576;2023-05-07T03:56:11;7.43;;;3.88;;
45206;SDS011;30950;53.086;21.576;2023-05-07T03:58:39;7.78;;;3.95;;
45206;SDS011;30950;53.086;21.576;2023-05-07T04:01:09;7.10;;;3.25;;
45206;SDS011;30950;53.086;21.576;2023-05-07T04:03:36;12.50;;;4.28;;
45206;SDS011;30950;53.086;21.576;2023-05-07T04:06:04;6.07;;;3.80;;
45206;SDS011;30950;53.086;21.576;2023-05-07T04:08:33;7.72;;;4.32;;
45206;SDS011;30950;53.086;21.576;2023-05-07T04:11:02;6.05;;;3.60;;
45206;SDS011;30950;53.086;21.576;2023-05-07T04:13:31;5.28;;;3.22;;
45206;SDS011;30950;53.086;21.576;2023-05-07T04:16:02;5.05;;;3.20;;
45206;SDS011;30950;53.086;21.576;2023-05-07T04:18:33;6.80;;;3.50;;
45206;SDS011;30950;53.086;21.576;2023-05-07T04:21:01;6.45;;;3.72;;
45206;SDS011;30950;53.086;21.576;2023-05-07T04:23:28;8.70;;;3.55;;
45206;SDS011;30950;53.086;21.576;2023-05-07T04:25:58;6.32;;;3.58;;
45206;SDS011;30950;53.086;21.576;2023-05-07T04:28:32;6.50;;;3.58;;
45206;SDS011;30950;53.086;21.576;2023-05-07T04:30:59;6.10;;;3.35;;
45206;SDS011;30950;53.086;21.576;2023-05-07T04:33:27;8.45;;;4.35;;
45206;SDS011;30950;53.086;21.576;2023-05-07T04:35:57;10.45;;;3.83;;
45206;SDS011;30950;53.086;21.576;2023-05-07T04:38:30;5.43;;;3.50;;
45206;SDS011;30950;53.086;21.576;2023-05-07T04:41:03;8.30;;;3.40;;
45206;SDS011;30950;53.086;21.576;2023-05-07T04:43:36;6.40;;;3.97;;
45206;SDS011;30950;53.086;21.576;2023-05-07T04:46:03;7.47;;;3.47;;
45206;SDS011;30950;53.086;21.576;2023-05-07T04:48:31;7.45;;;3.70;;
45206;SDS011;30950;53.086;21.576;2023-05-07T04:51:00;5.70;;;3.22;;
45206;SDS011;30950;53.086;21.576;2023-05-07T04:53:27;9.65;;;3.63;;
45206;SDS011;30950;53.086;21.576;2023-05-07T04:55:56;5.63;;;3.28;;
45206;SDS011;30950;53.086;21.576;2023-05-07T04:58:27;4.57;;;3.10;;
45206;SDS011;30950;53.086;21.576;2023-05-07T05:00:58;5.90;;;3.40;;
45206;SDS011;30950;53.086;21.576;2023-05-07T05:03:27;5.03;;;3.20;;
45206;SDS011;30950;53.086;21.576;2023-05-07T05:05:55;5.50;;;3.53;;
45206;SDS011;30950;53.086;21.576;2023-05-07T05:08:27;4.97;;;3.78;;
45206;SDS011;30950;53.086;21.576;2023-05-07T05:10:54;7.38;;;3.25;;
45206;SDS011;30950;53.086;21.576;2023-05-07T05:13:21;8.15;;;4.32;;
45206;SDS011;30950;53.086;21.576;2023-05-07T05:15:49;6.30;;;3.30;;
45206;SDS011;30950;53.086;21.576;2023-05-07T05:18:16;5.65;;;3.58;;
45206;SDS011;30950;53.086;21.576;2023-05-07T05:20:44;4.97;;;3.20;;
45206;SDS011;30950;53.086;21.576;2023-05-07T05:23:11;3.83;;;2.80;;
45206;SDS011;30950;53.086;21.576;2023-05-07T05:25:39;8.18;;;3.60;;
45206;SDS011;30950;53.086;21.576;2023-05-07T05:28:09;6.65;;;3.53;;
45206;SDS011;30950;53.086;21.576;2023-05-07T05:30:36;4.68;;;2.90;;
45206;SDS011;30950;53.086;21.576;2023-05-07T05:33:04;5.00;;;3.35;;
45206;SDS011;30950;53.086;21.576;2023-05-07T05:35:31;5.57;;;3.28;;
45206;SDS011;30950;53.086;21.576;2023-05-07T05:38:02;7.18;;;3.90;;
45206;SDS011;30950;53.086;21.576;2023-05-07T05:40:30;5.43;;;3.38;;
45206;SDS011;30950;53.086;21.576;2023-05-07T05:42:57;5.88;;;3.35;;
45206;SDS011;30950;53.086;21.576;2023-05-07T05:45:25;5.40;;;3.03;;
45206;SDS011;30950;53.086;21.576;2023-05-07T05:47:52;6.30;;;3.65;;
45206;SDS011;30950;53.086;21.576;2023-05-07T05:50:20;5.75;;;3.40;;
45206;SDS011;30950;53.086;21.576;2023-05-07T05:52:47;5.43;;;3.40;;
45206;SDS011;30950;53.086;21.576;2023-05-07T05:55:17;7.90;;;3.47;;
45206;SDS011;30950;53.086;21.576;2023-05-07T05:57:44;5.88;;;3.35;;
45206;SDS011;30950;53.086;21.576;2023-05-07T06:00:12;6.57;;;3.47;;
45206;SDS011;30950;53.086;21.576;2023-05-07T06:02:46;7.40;;;3.40;;
45206;SDS011;30950;53.086;21.576;2023-05-07T06:05:22;7.20;;;3.40;;
45206;SDS011;30950;53.086;21.576;2023-05-07T06:07:52;5.00;;;3.45;;
45206;SDS011;30950;53.086;21.576;2023-05-07T06:10:19;5.30;;;3.13;;
45206;SDS011;30950;53.086;21.576;2023-05-07T06:12:46;5.18;;;3.38;;
45206;SDS011;30950;53.086;21.576;2023-05-07T06:15:14;6.35;;;3.42;;
45206;SDS011;30950;53.086;21.576;2023-05-07T06:17:42;7.40;;;3.40;;
45206;SDS011;30950;53.086;21.576;2023-05-07T06:20:10;7.55;;;3.25;;
45206;SDS011;30950;53.086;21.576;2023-05-07T06:22:39;6.47;;;3.00;;
45206;SDS011;30950;53.086;21.576;2023-05-07T06:25:08;5.75;;;3.28;;
45206;SDS011;30950;53.086;21.576;2023-05-07T06:27:36;5.60;;;3.58;;
45206;SDS011;30950;53.086;21.576;2023-05-07T06:30:03;7.72;;;4.07;;
45206;SDS011;30950;53.086;21.576;2023-05-07T06:32:31;9.80;;;3.28;;
45206;SDS011;30950;53.086;21.576;2023-05-07T06:34:59;5.00;;;3.60;;
45206;SDS011;30950;53.086;21.576;2023-05-07T06:37:26;6.53;;;3.03;;
45206;SDS011;30950;53.086;21.576;2023-05-07T06:40:01;7.07;;;3.28;;
45206;SDS011;30950;53.086;21.576;2023-05-07T06:42:30;9.68;;;3.20;;
45206;SDS011;30950;53.086;21.576;2023-05-07T06:45:05;6.97;;;3.30;;
45206;SDS011;30950;53.086;21.576;2023-05-07T06:47:32;7.68;;;3.45;;
45206;SDS011;30950;53.086;21.576;2023-05-07T06:50:00;5.50;;;3.00;;
45206;SDS011;30950;53.086;21.576;2023-05-07T06:52:31;6.97;;;3.30;;
45206;SDS011;30950;53.086;21.576;2023-05-07T06:54:59;3.88;;;2.78;;
45206;SDS011;30950;53.086;21.576;2023-05-07T06:57:26;6.03;;;3.22;;
45206;SDS011;30950;53.086;21.576;2023-05-07T06:59:54;4.90;;;2.83;;
45206;SDS011;30950;53.086;21.576;2023-05-07T07:02:21;5.95;;;3.17;;
45206;SDS011;30950;53.086;21.576;2023-05-07T07:04:49;6.10;;;3.65;;
45206;SDS011;30950;53.086;21.576;2023-05-07T07:07:16;7.40;;;3.50;;
45206;SDS011;30950;53.086;21.576;2023-05-07T07:09:46;4.63;;;3.15;;
45206;SDS011;30950;53.086;21.576;2023-05-07T07:12:16;5.15;;;2.92;;
45206;SDS011;30950;53.086;21.576;2023-05-07T07:14:43;7.72;;;3.15;;
45206;SDS011;30950;53.086;21.576;2023-05-07T07:17:11;8.13;;;3.45;;
45206;SDS011;30950;53.086;21.576;2023-05-07T07:19:39;6.53;;;3.75;;
45206;SDS011;30950;53.086;21.576;2023-05-07T07:22:07;6.32;;;2.92;;
45206;SDS011;30950;53.086;21.576;2023-05-07T07:24:34;5.38;;;2.67;;
45206;SDS011;30950;53.086;21.576;2023-05-07T07:27:04;4.10;;;3.00;;
45206;SDS011;30950;53.086;21.576;2023-05-07T07:29:33;4.63;;;2.67;;
45206;SDS011;30950;53.086;21.576;2023-05-07T07:32:01;5.10;;;2.95;;
45206;SDS011;30950;53.086;21.576;2023-05-07T07:34:28;3.67;;;2.90;;
45206;SDS011;30950;53.086;21.576;2023-05-07T07:36:57;6.05;;;2.90;;
45206;SDS011;30950;53.086;21.576;2023-05-07T07:39:24;4.60;;;2.90;;
45206;SDS011;30950;53.086;21.576;2023-05-07T07:41:55;6.00;;;3.00;;
45206;SDS011;30950;53.086;21.576;2023-05-07T07:44:22;5.18;;;3.00;;
45206;SDS011;30950;53.086;21.576;2023-05-07T07:46:55;5.28;;;2.63;;
45206;SDS011;30950;53.086;21.576;2023-05-07T07:49:24;3.97;;;2.63;;
45206;SDS011;30950;53.086;21.576;2023-05-07T07:51:52;5.68;;;2.83;;
45206;SDS011;30950;53.086;21.576;2023-05-07T07:54:20;7.80;;;3.38;;
45206;SDS011;30950;53.086;21.576;2023-05-07T07:56:47;5.63;;;2.90;;
45206;SDS011;30950;53.086;21.576;2023-05-07T07:59:15;4.15;;;2.72;;
45206;SDS011;30950;53.086;21.576;2023-05-07T08:01:46;5.97;;;3.20;;
45206;SDS011;30950;53.086;21.576;2023-05-07T08:04:17;4.90;;;3.25;;
45206;SDS011;30950;53.086;21.576;2023-05-07T08:06:44;8.57;;;3.70;;
45206;SDS011;30950;53.086;21.576;2023-05-07T08:09:12;4.70;;;3.15;;
45206;SDS011;30950;53.086;21.576;2023-05-07T08:11:40;6.70;;;3.25;;
45206;SDS011;30950;53.086;21.576;2023-05-07T08:14:08;8.50;;;3.40;;
45206;SDS011;30950;53.086;21.576;2023-05-07T08:16:36;4.75;;;3.05;;
45206;SDS011;30950;53.086;21.576;2023-05-07T08:19:03;8.60;;;2.78;;
45206;SDS011;30950;53.086;21.576;2023-05-07T08:21:30;7.18;;;2.90;;
45206;SDS011;30950;53.086;21.576;2023-05-07T08:24:01;5.30;;;3.13;;
45206;SDS011;30950;53.086;21.576;2023-05-07T08:26:28;4.68;;;3.42;;
45206;SDS011;30950;53.086;21.576;2023-05-07T08:28:56;5.63;;;3.28;;
45206;SDS011;30950;53.086;21.576;2023-05-07T08:31:23;5.35;;;2.92;;
45206;SDS011;30950;53.086;21.576;2023-05-07T08:33:51;5.82;;;3.42;;
45206;SDS011;30950;53.086;21.576;2023-05-07T08:36:18;4.50;;;2.85;;
45206;SDS011;30950;53.086;21.576;2023-05-07T08:38:46;9.55;;;3.20;;
45206;SDS011;30950;53.086;21.576;2023-05-07T08:41:13;7.22;;;3.80;;
45206;SDS011;30950;53.086;21.576;2023-05-07T08:43:45;5.78;;;3.22;;
45206;SDS011;30950;53.086;21.576;2023-05-07T08:46:19;7.43;;;3.30;;
45206;SDS011;30950;53.086;21.576;2023-05-07T08:48:51;5.60;;;3.22;;
45206;SDS011;30950;53.086;21.576;2023-05-07T08:51:19;5.80;;;2.95;;
45206;SDS011;30950;53.086;21.576;2023-05-07T08:53:48;4.90;;;2.85;;
45206;SDS011;30950;53.086;21.576;2023-05-07T08:56:22;6.25;;;3.35;;
45206;SDS011;30950;53.086;21.576;2023-05-07T08:58:52;7.18;;;3.85;;
45206;SDS011;30950;53.086;21.576;2023-05-07T09:01:23;7.05;;;3.20;;
45206;SDS011;30950;53.086;21.576;2023-05-07T09:03:52;5.13;;;3.10;;
45206;SDS011;30950;53.086;21.576;2023-05-07T09:06:21;5.30;;;3.30;;
45206;SDS011;30950;53.086;21.576;2023-05-07T09:08:50;5.13;;;2.90;;
45206;SDS011;30950;53.086;21.576;2023-05-07T09:11:20;5.22;;;3.05;;
45206;SDS011;30950;53.086;21.576;2023-05-07T09:13:53;4.72;;;3.10;;
45206;SDS011;30950;53.086;21.576;2023-05-07T09:16:23;7.05;;;3.53;;
45206;SDS011;30950;53.086;21.576;2023-05-07T09:18:53;6.43;;;3.08;;
45206;SDS011;30950;53.086;21.576;2023-05-07T09:21:22;5.25;;;3.00;;
45206;SDS011;30950;53.086;21.576;2023-05-07T09:23:52;10.15;;;3.10;;
45206;SDS011;30950;53.086;21.576;2023-05-07T09:26:25;5.65;;;3.17;;
45206;SDS011;30950;53.086;21.576;2023-05-07T09:28:52;4.97;;;3.00;;
45206;SDS011;30950;53.086;21.576;2023-05-07T09:31:20;5.95;;;3.22;;
45206;SDS011;30950;53.086;21.576;2023-05-07T09:33:52;8.65;;;4.10;;
45206;SDS011;30950;53.086;21.576;2023-05-07T09:36:19;3.88;;;2.53;;
45206;SDS011;30950;53.086;21.576;2023-05-07T09:38:59;6.25;;;2.60;;
45206;SDS011;30950;53.086;21.576;2023-05-07T09:41:29;5.47;;;3.10;;
45206;SDS011;30950;53.086;21.576;2023-05-07T09:44:13;4.78;;;3.10;;
45206;SDS011;30950;53.086;21.576;2023-05-07T09:46:45;5.07;;;2.92;;
45206;SDS011;30950;53.086;21.576;2023-05-07T09:49:24;5.55;;;2.80;;
45206;SDS011;30950;53.086;21.576;2023-05-07T09:51:59;4.47;;;3.22;;
45206;SDS011;30950;53.086;21.576;2023-05-07T09:54:30;4.00;;;2.90;;
45206;SDS011;30950;53.086;21.576;2023-05-07T09:57:01;6.60;;;2.80;;
45206;SDS011;30950;53.086;21.576;2023-05-07T09:59:33;6.30;;;2.70;;
45206;SDS011;30950;53.086;21.576;2023-05-07T10:02:06;4.78;;;2.65;;
45206;SDS011;30950;53.086;21.576;2023-05-07T10:04:44;6.75;;;3.30;;
45206;SDS011;30950;53.086;21.576;2023-05-07T10:07:15;5.60;;;2.70;;
45206;SDS011;30950;53.086;21.576;2023-05-07T10:09:44;4.63;;;2.60;;
45206;SDS011;30950;53.086;21.576;2023-05-07T10:12:23;5.97;;;2.83;;
45206;SDS011;30950;53.086;21.576;2023-05-07T10:14:51;5.07;;;2.65;;
45206;SDS011;30950;53.086;21.576;2023-05-07T10:17:22;3.90;;;2.78;;
45206;SDS011;30950;53.086;21.576;2023-05-07T10:19:51;5.55;;;2.83;;
45206;SDS011;30950;53.086;21.576;2023-05-07T10:22:21;7.57;;;2.97;;
45206;SDS011;30950;53.086;21.576;2023-05-07T10:24:51;3.65;;;2.72;;
45206;SDS011;30950;53.086;21.576;2023-05-07T10:27:21;6.88;;;2.50;;
45206;SDS011;30950;53.086;21.576;2023-05-07T10:29:59;5.60;;;2.95;;
45206;SDS011;30950;53.086;21.576;2023-05-07T10:32:49;4.13;;;2.67;;
45206;SDS011;30950;53.086;21.576;2023-05-07T10:35:29;3.72;;;2.55;;
45206;SDS011;30950;53.086;21.576;2023-05-07T10:38:02;3.40;;;2.33;;
45206;SDS011;30950;53.086;21.576;2023-05-07T10:40:33;4.22;;;2.78;;
45206;SDS011;30950;53.086;21.576;2023-05-07T10:43:02;4.20;;;2.80;;
45206;SDS011;30950;53.086;21.576;2023-05-07T10:45:42;4.32;;;2.72;;
45206;SDS011;30950;53.086;21.576;2023-05-07T10:50:51;5.57;;;2.95;;
45206;SDS011;30950;53.086;21.576;2023-05-07T10:56:45;4.03;;;2.67;;
45206;SDS011;30950;53.086;21.576;2023-05-07T11:01:58;7.95;;;3.30;;
45206;SDS011;30950;53.086;21.576;2023-05-07T11:05:18;5.28;;;3.63;;
45206;SDS011;30950;53.086;21.576;2023-05-07T11:07:54;4.97;;;3.17;;
45206;SDS011;30950;53.086;21.576;2023-05-07T11:13:49;4.45;;;2.97;;
45206;SDS011;30950;53.086;21.576;2023-05-07T11:16:43;3.78;;;2.75;;
45206;SDS011;30950;53.086;21.576;2023-05-07T11:22:38;6.63;;;3.00;;
45206;SDS011;30950;53.086;21.576;2023-05-07T11:25:19;4.75;;;3.10;;
45206;SDS011;30950;53.086;21.576;2023-05-07T11:27:52;4.63;;;2.50;;
45206;SDS011;30950;53.086;21.576;2023-05-07T11:30:19;3.88;;;2.67;;
45206;SDS011;30950;53.086;21.576;2023-05-07T11:32:47;4.05;;;2.70;;
45206;SDS011;30950;53.086;21.576;2023-05-07T11:35:17;3.75;;;2.60;;
45206;SDS011;30950;53.086;21.576;2023-05-07T11:37:47;5.18;;;2.55;;
45206;SDS011;30950;53.086;21.576;2023-05-07T11:40:16;5.85;;;3.13;;
45206;SDS011;30950;53.086;21.576;2023-05-07T11:42:43;5.18;;;3.00;;
45206;SDS011;30950;53.086;21.576;2023-05-07T11:45:10;5.55;;;2.80;;
45206;SDS011;30950;53.086;21.576;2023-05-07T11:47:38;5.03;;;3.35;;
45206;SDS011;30950;53.086;21.576;2023-05-07T11:50:10;7.07;;;2.80;;
45206;SDS011;30950;53.086;21.576;2023-05-07T11:52:37;14.68;;;3.33;;
45206;SDS011;30950;53.086;21.576;2023-05-07T11:55:06;4.60;;;2.58;;
45206;SDS011;30950;53.086;21.576;2023-05-07T11:57:34;6.45;;;2.60;;
45206;SDS011;30950;53.086;21.576;2023-05-07T12:00:02;3.70;;;2.65;;
45206;SDS011;30950;53.086;21.576;2023-05-07T12:02:40;4.50;;;2.70;;
45206;SDS011;30950;53.086;21.576;2023-05-07T12:05:09;6.10;;;2.80;;
45206;SDS011;30950;53.086;21.576;2023-05-07T12:07:36;6.60;;;2.58;;
45206;SDS011;30950;53.086;21.576;2023-05-07T12:10:05;5.60;;;3.15;;
45206;SDS011;30950;53.086;21.576;2023-05-07T12:12:39;5.25;;;2.60;;
45206;SDS011;30950;53.086;21.576;2023-05-07T12:15:15;4.50;;;2.60;;
45206;SDS011;30950;53.086;21.576;2023-05-07T12:17:43;5.45;;;2.92;;
45206;SDS011;30950;53.086;21.576;2023-05-07T12:20:10;5.43;;;2.92;;
45206;SDS011;30950;53.086;21.576;2023-05-07T12:22:38;4.32;;;2.60;;
45206;SDS011;30950;53.086;21.576;2023-05-07T12:25:05;3.45;;;2.45;;
45206;SDS011;30950;53.086;21.576;2023-05-07T12:27:36;5.05;;;2.72;;
45206;SDS011;30950;53.086;21.576;2023-05-07T12:30:05;5.82;;;2.90;;
45206;SDS011;30950;53.086;21.576;2023-05-07T12:32:32;5.60;;;2.60;;
45206;SDS011;30950;53.086;21.576;2023-05-07T12:35:05;3.90;;;2.20;;
45206;SDS011;30950;53.086;21.576;2023-05-07T12:37:32;4.18;;;2.65;;
45206;SDS011;30950;53.086;21.576;2023-05-07T12:42:36;4.68;;;2.80;;
45206;SDS011;30950;53.086;21.576;2023-05-07T12:45:11;4.32;;;2.28;;
45206;SDS011;30950;53.086;21.576;2023-05-07T12:47:43;4.75;;;2.40;;
45206;SDS011;30950;53.086;21.576;2023-05-07T12:50:15;5.32;;;2.38;;
45206;SDS011;30950;53.086;21.576;2023-05-07T12:52:43;4.32;;;2.10;;
45206;SDS011;30950;53.086;21.576;2023-05-07T12:55:13;5.90;;;2.90;;
45206;SDS011;30950;53.086;21.576;2023-05-07T12:57:42;4.22;;;2.42;;
45206;SDS011;30950;53.086;21.576;2023-05-07T13:00:12;5.75;;;2.50;;
45206;SDS011;30950;53.086;21.576;2023-05-07T13:02:40;3.63;;;2.50;;
45206;SDS011;30950;53.086;21.576;2023-05-07T13:05:11;5.55;;;2.55;;
45206;SDS011;30950;53.086;21.576;2023-05-07T13:07:39;3.53;;;2.40;;
45206;SDS011;30950;53.086;21.576;2023-05-07T13:10:07;4.55;;;2.78;;
45206;SDS011;30950;53.086;21.576;2023-05-07T13:12:35;4.30;;;2.42;;
45206;SDS011;30950;53.086;21.576;2023-05-07T13:15:02;4.63;;;2.58;;
45206;SDS011;30950;53.086;21.576;2023-05-07T13:17:30;6.55;;;2.65;;
45206;SDS011;30950;53.086;21.576;2023-05-07T13:19:58;3.35;;;2.30;;
45206;SDS011;30950;53.086;21.576;2023-05-07T13:22:25;7.63;;;2.38;;
45206;SDS011;30950;53.086;21.576;2023-05-07T13:24:53;5.13;;;2.30;;
45206;SDS011;30950;53.086;21.576;2023-05-07T13:27:20;3.88;;;2.38;;
45206;SDS011;30950;53.086;21.576;2023-05-07T13:29:47;4.63;;;2.33;;
45206;SDS011;30950;53.086;21.576;2023-05-07T13:32:14;4.50;;;2.53;;
45206;SDS011;30950;53.086;21.576;2023-05-07T13:34:42;4.53;;;2.42;;
45206;SDS011;30950;53.086;21.576;2023-05-07T13:37:09;5.28;;;2.42;;
45206;SDS011;30950;53.086;21.576;2023-05-07T13:39:38;4.80;;;2.38;;
45206;SDS011;30950;53.086;21.576;2023-05-07T13:42:05;3.83;;;2.30;;
45206;SDS011;30950;53.086;21.576;2023-05-07T13:44:32;4.03;;;2.38;;
45206;SDS011;30950;53.086;21.576;2023-05-07T13:46:59;4.95;;;2.80;;
45206;SDS011;30950;53.086;21.576;2023-05-07T13:49:27;3.38;;;2.40;;
45206;SDS011;30950;53.086;21.576;2023-05-07T13:51:55;4.03;;;2.47;;
45206;SDS011;30950;53.086;21.576;2023-05-07T13:54:22;4.10;;;2.28;;
45206;SDS011;30950;53.086;21.576;2023-05-07T13:56:50;5.82;;;2.30;;
45206;SDS011;30950;53.086;21.576;2023-05-07T13:59:17;3.67;;;2.20;;
45206;SDS011;30950;53.086;21.576;2023-05-07T14:01:44;4.07;;;2.42;;
45206;SDS011;30950;53.086;21.576;2023-05-07T14:04:12;4.25;;;2.35;;
45206;SDS011;30950;53.086;21.576;2023-05-07T14:06:39;4.00;;;2.30;;
45206;SDS011;30950;53.086;21.576;2023-05-07T14:09:06;3.97;;;2.80;;
45206;SDS011;30950;53.086;21.576;2023-05-07T14:11:34;3.72;;;2.33;;
45206;SDS011;30950;53.086;21.576;2023-05-07T14:14:02;4.15;;;2.60;;
45206;SDS011;30950;53.086;21.576;2023-05-07T14:16:29;5.72;;;2.97;;
45206;SDS011;30950;53.086;21.576;2023-05-07T14:18:56;5.13;;;2.38;;
45206;SDS011;30950;53.086;21.576;2023-05-07T14:21:24;4.63;;;2.80;;
45206;SDS011;30950;53.086;21.576;2023-05-07T14:23:52;6.28;;;2.50;;
45206;SDS011;30950;53.086;21.576;2023-05-07T14:26:19;4.72;;;2.50;;
45206;SDS011;30950;53.086;21.576;2023-05-07T14:28:47;6.85;;;2.58;;
45206;SDS011;30950;53.086;21.576;2023-05-07T14:31:14;4.78;;;2.40;;
45206;SDS011;30950;53.086;21.576;2023-05-07T14:33:42;7.38;;;3.15;;
45206;SDS011;30950;53.086;21.576;2023-05-07T14:36:09;6.43;;;2.75;;
45206;SDS011;30950;53.086;21.576;2023-05-07T14:38:36;5.05;;;2.50;;
45206;SDS011;30950;53.086;21.576;2023-05-07T14:41:04;3.33;;;2.40;;
45206;SDS011;30950;53.086;21.576;2023-05-07T14:43:31;4.57;;;2.47;;
45206;SDS011;30950;53.086;21.576;2023-05-07T14:45:58;7.95;;;3.30;;
45206;SDS011;30950;53.086;21.576;2023-05-07T14:48:26;6.35;;;3.13;;
45206;SDS011;30950;53.086;21.576;2023-05-07T14:50:53;6.28;;;2.85;;
45206;SDS011;30950;53.086;21.576;2023-05-07T14:53:21;5.85;;;2.92;;
45206;SDS011;30950;53.086;21.576;2023-05-07T14:55:48;4.88;;;2.88;;
45206;SDS011;30950;53.086;21.576;2023-05-07T14:58:15;6.90;;;3.05;;
45206;SDS011;30950;53.086;21.576;2023-05-07T15:00:43;6.43;;;3.60;;
45206;SDS011;30950;53.086;21.576;2023-05-07T15:03:10;5.50;;;3.40;;